To NAV CANADA Home Page Login to a new session Search on AWWS site Feedback and Comments Disclaimer Vers la page française équivalente Tips FAQ What's new on the site To the Forecasts and Observations / NOTAM section To "File a Flight Plan" website Publications and other links Update of the User's profile FIC Telephone Numbers My Weather Data Folder Route Weather Data Regional Weather Data Local Weather Data To the Forecasts and Observations / NOTAM section
Request Generated 06/26/2017 at 03:27:36 UTC . Weather information available at that time is displayed.

METAR/TAF

RED DEER REGIONAL/AB    

METAR CYQF 260300Z 14011KT 15SM BKN250 20/10 A3005 RMK CI6 SLP179
DENSITY ALT 4100FT=
METAR CYQF 260200Z 15014G22KT 15SM FEW180 BKN250 22/09 A3007 RMK
AC2CI4 SLP186 DENSITY ALT 4300FT=
METAR CYQF 260100Z 15019G24KT 15SM FEW180 BKN250 23/09 A3008 RMK
AC2CI4 SLP192 DENSITY ALT 4400FT=

TAF CYQF 252339Z 2600/2612 15015G25KT P6SM FEW060
BECMG 2604/2606 14015KT
FM260600 14015KT WS005/16040KT P6SM FEW260
RMK NXT FCST BY 260600Z=
Your time UTC time
Weather data provided by Environment Canada and NAV CANADA